Time;durP1;ratioP1;P1;durP2;ratioP2;P2;SDS_P1;SDS_P2;PMS_P1;PMS_P2;Temp;Humidity;BMP_temperature;BMP_pressure;BME280_temperature;BME280_humidity;BME280_pressure;Samples;Min_cycle;Max_cycle;Signal;HPM_P1;HPM_P2
2023/07/28 00:00:40;;;;;;;73.30;30.87;;;18.20;99.90;;;;;;6242701;23;20412;-71
2023/07/28 00:03:07;;;;;;;73.03;31.70;;;18.20;99.90;;;;;;6242324;23;20465;-71
2023/07/28 00:05:33;;;;;;;74.70;32.53;;;18.10;99.90;;;;;;6242131;23;20947;-71
2023/07/28 00:08:00;;;;;;;75.57;32.40;;;18.10;99.90;;;;;;6242335;23;20475;-71
2023/07/28 00:10:27;;;;;;;72.27;31.53;;;18.10;99.90;;;;;;6242560;23;20412;-71
2023/07/28 00:12:53;;;;;;;76.10;31.97;;;18.10;99.90;;;;;;6242394;23;20431;-72
2023/07/28 00:15:20;;;;;;;74.20;31.47;;;18.10;99.90;;;;;;6242219;23;20411;-71
2023/07/28 00:17:48;;;;;;;74.47;32.23;;;18.00;99.90;;;;;;6242499;23;20408;-71
2023/07/28 00:20:15;;;;;;;77.10;32.97;;;18.10;99.90;;;;;;6242590;23;20408;-71
2023/07/28 00:22:42;;;;;;;73.00;31.30;;;18.10;99.90;;;;;;6242532;23;20408;-72
2023/07/28 00:25:09;;;;;;;73.93;32.50;;;18.00;99.90;;;;;;6242664;23;20439;-71
2023/07/28 00:27:35;;;;;;;85.87;34.13;;;18.00;99.90;;;;;;6242010;23;20899;-73
2023/07/28 00:30:02;;;;;;;77.20;33.50;;;17.90;99.90;;;;;;6242368;23;20737;-71
2023/07/28 00:32:29;;;;;;;76.63;33.60;;;17.90;99.90;;;;;;6242520;23;20408;-71
2023/07/28 00:34:57;;;;;;;72.63;31.40;;;17.90;99.90;;;;;;6242118;23;20432;-71
2023/07/28 00:37:24;;;;;;;79.07;33.80;;;17.90;99.90;;;;;;6242320;23;20462;-72
2023/07/28 00:39:50;;;;;;;75.60;34.00;;;17.90;99.90;;;;;;6242373;23;20399;-72
2023/07/28 00:42:17;;;;;;;82.50;33.70;;;17.90;99.90;;;;;;6242432;23;20794;-71
2023/07/28 00:44:44;;;;;;;75.30;32.93;;;17.90;99.90;;;;;;6242287;23;20415;-72
2023/07/28 00:47:10;;;;;;;75.17;34.00;;;17.90;99.90;;;;;;6242299;23;20403;-71
2023/07/28 00:49:38;;;;;;;73.50;32.37;;;18.00;99.90;;;;;;6242525;23;20474;-72
2023/07/28 00:52:08;;;;;;;77.50;34.20;;;17.90;99.90;;;;;;6242474;23;20709;-72
2023/07/28 00:54:35;;;;;;;72.27;31.30;;;17.90;99.90;;;;;;6242619;23;20463;-72
2023/07/28 00:57:02;;;;;;;74.83;33.13;;;17.80;99.90;;;;;;6242484;23;20464;-71
2023/07/28 00:59:30;;;;;;;75.50;32.50;;;17.80;99.90;;;;;;6242214;23;20415;-72
2023/07/28 01:01:56;;;;;;;78.73;32.40;;;17.70;99.90;;;;;;6242264;23;20408;-72
2023/07/28 01:04:23;;;;;;;74.97;31.80;;;17.70;99.90;;;;;;6241940;23;20404;-73
2023/07/28 01:06:56;;;;;;;73.27;32.43;;;17.70;99.90;;;;;;6243474;23;20772;-71
2023/07/28 01:09:32;;;;;;;81.47;30.90;;;17.70;99.90;;;;;;6242766;23;20396;-71
2023/07/28 01:12:00;;;;;;;76.13;30.87;;;17.60;99.90;;;;;;6242575;23;20438;-71
2023/07/28 01:14:27;;;;;;;75.43;32.50;;;17.60;99.90;;;;;;6242490;23;20423;-71
2023/07/28 01:16:54;;;;;;;74.57;31.30;;;17.70;99.90;;;;;;6242750;23;20395;-71
2023/07/28 01:19:22;;;;;;;73.80;30.10;;;17.70;99.90;;;;;;6242080;23;20414;-72
2023/07/28 01:21:58;;;;;;;79.30;31.20;;;17.70;99.90;;;;;;6242962;23;20419;-71
2023/07/28 01:24:36;;;;;;;74.87;33.13;;;17.80;99.90;;;;;;6243872;23;20392;-72
2023/07/28 01:27:07;;;;;;;73.87;32.37;;;17.80;99.90;;;;;;6243815;23;20432;-72
2023/07/28 01:29:34;;;;;;;72.50;31.57;;;17.80;99.90;;;;;;6243993;23;20389;-71
2023/07/28 01:32:01;;;;;;;72.87;32.23;;;17.70;99.90;;;;;;6244161;23;20414;-71
2023/07/28 01:34:28;;;;;;;76.37;31.73;;;17.70;99.90;;;;;;6243632;23;20768;-72
2023/07/28 01:36:54;;;;;;;72.80;31.80;;;17.70;99.90;;;;;;6243955;23;20602;-71
2023/07/28 01:39:21;;;;;;;73.77;33.10;;;17.60;99.90;;;;;;6243881;23;20407;-71
2023/07/28 01:41:48;;;;;;;75.97;32.20;;;17.60;99.90;;;;;;6243891;23;20408;-72
2023/07/28 01:44:16;;;;;;;74.50;31.57;;;17.50;99.90;;;;;;6243909;23;20419;-71
2023/07/28 01:46:42;;;;;;;72.60;31.93;;;17.50;99.90;;;;;;6243657;23;20447;-71
2023/07/28 01:49:09;;;;;;;78.27;32.53;;;17.40;99.90;;;;;;6244349;23;20412;-72
2023/07/28 01:51:36;;;;;;;75.30;31.00;;;17.40;99.90;;;;;;6243919;23;20467;-72
2023/07/28 01:54:03;;;;;;;77.43;32.40;;;17.40;99.90;;;;;;6243955;23;20400;-72
2023/07/28 01:56:29;;;;;;;72.67;31.67;;;17.40;99.90;;;;;;6243705;23;20404;-73
2023/07/28 01:58:56;;;;;;;76.67;32.83;;;17.40;99.90;;;;;;6243762;23;20411;-73
2023/07/28 02:01:24;;;;;;;78.77;33.50;;;17.40;99.90;;;;;;6243789;23;20419;-73
2023/07/28 02:03:51;;;;;;;76.33;33.30;;;17.40;99.90;;;;;;6243779;23;20404;-73
2023/07/28 02:06:17;;;;;;;73.40;33.00;;;17.40;99.90;;;;;;6243651;23;20446;-73
2023/07/28 02:08:44;;;;;;;73.60;33.20;;;17.50;99.90;;;;;;6243502;23;20408;-73
2023/07/28 02:11:11;;;;;;;73.37;32.07;;;17.50;99.90;;;;;;6243778;23;20403;-73
2023/07/28 02:13:37;;;;;;;72.00;31.90;;;17.50;99.90;;;;;;6243664;23;20526;-73
2023/07/28 02:16:04;;;;;;;71.90;32.20;;;17.60;99.90;;;;;;6243945;23;20408;-73
2023/07/28 02:18:32;;;;;;;70.97;31.20;;;17.60;99.90;;;;;;6243715;23;20408;-73
2023/07/28 02:20:59;;;;;;;69.93;30.97;;;17.60;99.90;;;;;;6243344;23;20907;-73
2023/07/28 02:23:26;;;;;;;69.90;30.37;;;17.60;99.90;;;;;;6243607;23;20408;-73
2023/07/28 02:25:52;;;;;;;70.20;29.20;;;17.60;99.90;;;;;;6243501;23;20443;-73
2023/07/28 02:28:19;;;;;;;69.50;29.80;;;17.70;99.90;;;;;;6243399;23;20419;-72
2023/07/28 02:30:46;;;;;;;69.47;29.33;;;17.70;99.90;;;;;;6243139;23;20912;-73
2023/07/28 02:33:12;;;;;;;72.70;30.43;;;17.80;99.90;;;;;;6242539;22;20835;-71
2023/07/28 02:35:40;;;;;;;70.97;29.63;;;17.80;99.90;;;;;;6243556;23;20678;-71
2023/07/28 02:38:07;;;;;;;69.63;29.40;;;17.90;99.90;;;;;;6243215;23;20408;-73
2023/07/28 02:40:34;;;;;;;75.47;32.93;;;17.90;99.90;;;;;;6243166;23;20416;-73
2023/07/28 02:43:01;;;;;;;71.90;29.93;;;17.90;99.90;;;;;;6243101;23;20415;-73
2023/07/28 02:45:27;;;;;;;68.80;29.73;;;17.90;99.90;;;;;;6243256;23;20408;-73
2023/07/28 02:47:54;;;;;;;71.10;28.40;;;17.90;99.90;;;;;;6243380;23;20411;-70
2023/07/28 02:50:21;;;;;;;78.83;29.77;;;17.90;99.90;;;;;;6243161;23;20892;-73
2023/07/28 02:52:49;;;;;;;70.80;29.83;;;17.90;99.90;;;;;;6243405;23;20419;-72
2023/07/28 02:55:16;;;;;;;71.77;32.80;;;17.90;99.90;;;;;;6242911;23;20412;-72
2023/07/28 02:57:43;;;;;;;71.17;30.40;;;17.90;99.90;;;;;;6243275;23;20404;-72
2023/07/28 03:00:11;;;;;;;71.87;31.23;;;18.00;99.90;;;;;;6243117;23;20407;-73
2023/07/28 03:02:38;;;;;;;69.77;29.97;;;18.10;99.90;;;;;;6242735;23;20896;-72
2023/07/28 03:05:05;;;;;;;71.73;30.47;;;18.10;99.90;;;;;;6241438;23;20412;-72
2023/07/28 03:07:31;;;;;;;73.00;31.80;;;18.20;99.90;;;;;;6240828;23;20470;-71
2023/07/28 03:09:59;;;;;;;79.97;34.47;;;18.30;99.90;;;;;;6240875;23;20791;-72
2023/07/28 03:12:26;;;;;;;74.77;34.30;;;18.30;99.90;;;;;;6241637;23;20935;-73
2023/07/28 03:14:53;;;;;;;75.17;34.60;;;18.30;99.90;;;;;;6242573;23;20407;-72
2023/07/28 03:17:19;;;;;;;75.40;34.60;;;18.30;99.90;;;;;;6242586;23;20408;-72
2023/07/28 03:19:46;;;;;;;76.63;34.30;;;18.30;99.90;;;;;;6229922;23;20730;-73
2023/07/28 03:22:13;;;;;;;76.07;34.20;;;18.30;99.90;;;;;;6243093;23;20403;-74
2023/07/28 03:24:40;;;;;;;73.33;32.90;;;18.40;99.90;;;;;;6243346;23;20411;-72
2023/07/28 03:27:09;;;;;;;77.20;33.40;;;18.30;99.90;;;;;;6241502;23;20489;-73
2023/07/28 03:29:35;;;;;;;72.50;33.37;;;18.20;99.90;;;;;;6242781;23;20740;-73
2023/07/28 03:32:02;;;;;;;75.20;34.10;;;18.20;99.90;;;;;;6242957;23;20418;-74
2023/07/28 03:34:29;;;;;;;76.90;35.30;;;18.10;99.90;;;;;;6241917;23;20435;-73
2023/07/28 03:36:55;;;;;;;74.60;34.53;;;18.10;99.90;;;;;;6242630;23;20450;-73
2023/07/28 03:39:22;;;;;;;73.67;34.50;;;18.10;99.90;;;;;;6242233;23;20430;-74
2023/07/28 03:41:49;;;;;;;76.23;34.03;;;18.10;99.90;;;;;;6243006;23;20408;-74
2023/07/28 03:44:19;;;;;;;75.57;35.07;;;18.20;99.90;;;;;;6242825;23;20751;-74
2023/07/28 03:46:46;;;;;;;73.20;34.03;;;18.20;99.90;;;;;;6242579;23;20982;-73
2023/07/28 03:49:13;;;;;;;74.13;33.67;;;18.20;99.90;;;;;;6242911;23;20469;-74
2023/07/28 03:51:40;;;;;;;75.80;34.60;;;18.30;99.90;;;;;;6243339;23;20412;-74
2023/07/28 03:54:06;;;;;;;72.97;34.73;;;18.30;99.90;;;;;;6243498;23;20511;-73
2023/07/28 03:56:33;;;;;;;74.00;35.10;;;18.20;99.90;;;;;;6243194;23;20413;-73
2023/07/28 03:59:00;;;;;;;75.90;36.10;;;18.30;99.90;;;;;;6242772;23;20770;-73
2023/07/28 04:01:28;;;;;;;74.47;35.50;;;18.20;99.90;;;;;;6243106;23;20824;-74
2023/07/28 04:03:54;;;;;;;77.70;36.20;;;18.20;99.90;;;;;;6242993;23;20411;-74
2023/07/28 04:06:41;;;;;;;74.70;33.77;;;18.30;99.90;;;;;;6242721;23;20439;-74
2023/07/28 04:09:08;;;;;;;75.70;34.57;;;18.30;99.90;;;;;;6242847;23;20443;-73
2023/07/28 04:11:34;;;;;;;72.60;34.00;;;18.40;99.90;;;;;;6242557;23;20725;-73
2023/07/28 04:14:01;;;;;;;77.70;35.00;;;18.40;99.90;;;;;;6242301;23;20896;-74
2023/07/28 04:16:29;;;;;;;78.20;33.47;;;18.40;99.90;;;;;;6242758;23;20437;-74
2023/07/28 04:18:56;;;;;;;75.03;34.80;;;18.40;99.90;;;;;;6242746;23;20415;-74
2023/07/28 04:21:23;;;;;;;77.87;34.93;;;18.30;99.90;;;;;;6242754;23;20475;-73
2023/07/28 04:23:50;;;;;;;75.80;34.23;;;18.30;99.90;;;;;;6242432;23;20408;-73
2023/07/28 04:26:17;;;;;;;84.23;34.47;;;18.20;99.90;;;;;;6242384;23;20447;-73
2023/07/28 04:28:44;;;;;;;73.97;31.23;;;18.20;99.90;;;;;;6242343;23;20908;-73
2023/07/28 04:31:11;;;;;;;75.37;34.40;;;18.10;99.90;;;;;;6242690;23;20412;-74
2023/07/28 04:33:42;;;;;;;78.87;34.90;;;18.30;99.90;;;;;;6242578;22;20435;-73
2023/07/28 04:36:09;;;;;;;81.40;35.00;;;18.30;99.90;;;;;;6242666;23;20402;-73
2023/07/28 04:38:36;;;;;;;75.60;32.87;;;18.40;99.90;;;;;;6242100;23;20895;-74
2023/07/28 04:41:02;;;;;;;74.83;33.20;;;18.30;99.90;;;;;;6242477;23;20430;-74
2023/07/28 04:43:29;;;;;;;76.80;33.40;;;18.30;99.90;;;;;;6242354;23;20408;-74
2023/07/28 04:45:56;;;;;;;78.80;34.27;;;18.20;99.90;;;;;;6242576;23;20415;-73
2023/07/28 04:48:23;;;;;;;79.33;34.50;;;18.20;99.90;;;;;;6242886;23;20435;-74
2023/07/28 04:50:51;;;;;;;76.37;35.70;;;18.20;99.90;;;;;;6242624;23;20414;-73
2023/07/28 04:53:17;;;;;;;77.27;34.97;;;18.20;99.90;;;;;;6242353;23;20418;-73
2023/07/28 04:55:44;;;;;;;77.23;36.63;;;18.20;99.90;;;;;;6242726;23;20407;-72
2023/07/28 04:58:11;;;;;;;77.53;36.00;;;18.10;99.90;;;;;;6244230;23;20408;-72
2023/07/28 05:00:37;;;;;;;81.80;35.83;;;18.00;99.90;;;;;;6244572;23;20408;-72
2023/07/28 05:03:04;;;;;;;79.27;40.90;;;18.00;99.90;;;;;;6244502;23;20408;-73
2023/07/28 05:05:31;;;;;;;79.33;42.57;;;17.90;99.90;;;;;;6244277;23;20918;-74
2023/07/28 05:07:59;;;;;;;83.47;48.67;;;17.90;99.90;;;;;;6244539;23;20450;-74
2023/07/28 05:10:26;;;;;;;83.90;49.07;;;17.90;99.90;;;;;;6244100;23;20892;-73
2023/07/28 05:12:52;;;;;;;87.00;51.60;;;17.90;99.90;;;;;;6244460;23;20428;-74
2023/07/28 05:15:19;;;;;;;86.17;52.00;;;17.90;99.90;;;;;;6244399;23;20433;-73
2023/07/28 05:17:45;;;;;;;85.63;53.93;;;17.90;99.90;;;;;;6244394;23;20404;-74
2023/07/28 05:20:13;;;;;;;87.37;52.00;;;18.10;99.90;;;;;;6244341;23;20414;-74
2023/07/28 05:22:39;;;;;;;88.63;53.60;;;18.20;99.90;;;;;;6244360;23;20758;-73
2023/07/28 05:25:08;;;;;;;88.10;54.73;;;18.20;99.90;;;;;;6244375;23;20408;-74
2023/07/28 05:27:35;;;;;;;89.47;55.70;;;18.30;99.90;;;;;;6244242;23;20443;-73
2023/07/28 05:30:02;;;;;;;89.70;57.43;;;18.30;99.90;;;;;;6244487;23;20408;-72
2023/07/28 05:32:28;;;;;;;91.30;58.30;;;18.30;99.90;;;;;;6244123;23;20411;-71
2023/07/28 05:34:55;;;;;;;98.10;63.50;;;18.30;99.90;;;;;;6243864;23;20442;-73
2023/07/28 05:37:22;;;;;;;93.47;59.43;;;18.30;99.90;;;;;;6243810;23;20892;-73
2023/07/28 05:39:49;;;;;;;96.67;64.70;;;18.30;99.90;;;;;;6243389;23;20412;-72
2023/07/28 05:42:17;;;;;;;99.50;60.80;;;18.30;99.90;;;;;;6243464;23;20793;-72
2023/07/28 05:44:44;;;;;;;94.87;60.53;;;18.30;99.90;;;;;;6237339;23;20458;-72
2023/07/28 05:47:10;;;;;;;93.33;60.73;;;18.30;99.90;;;;;;6243837;23;20447;-72
2023/07/28 05:49:37;;;;;;;91.20;58.10;;;18.30;99.90;;;;;;6243747;23;20407;-74
2023/07/28 05:52:04;;;;;;;91.70;58.27;;;18.30;99.90;;;;;;6242975;23;20411;-71
2023/07/28 05:54:31;;;;;;;91.80;56.70;;;18.30;99.90;;;;;;6242682;23;20739;-73
2023/07/28 05:56:58;;;;;;;93.20;58.23;;;18.30;99.90;;;;;;6243372;23;20400;-72
2023/07/28 06:02:12;;;;;;;94.73;59.63;;;18.40;99.90;;;;;;6189549;23;20404;-72
2023/07/28 06:04:39;;;;;;;96.20;60.60;;;18.60;99.90;;;;;;6242373;23;20404;-73
2023/07/28 06:07:07;;;;;;;92.40;62.30;;;18.70;99.90;;;;;;6244301;23;20443;-73
2023/07/28 06:09:33;;;;;;;93.07;61.53;;;18.80;99.90;;;;;;6244062;23;20438;-73
2023/07/28 06:12:00;;;;;;;109.27;63.73;;;18.60;99.90;;;;;;6244264;23;20482;-72
2023/07/28 06:14:28;;;;;;;104.50;65.07;;;18.80;99.90;;;;;;6243948;23;20404;-76
2023/07/28 06:16:55;;;;;;;102.20;70.53;;;18.90;99.90;;;;;;6241166;23;20416;-75
2023/07/28 06:19:23;;;;;;;96.07;66.23;;;18.90;99.90;;;;;;6243387;23;20399;-75
2023/07/28 06:21:50;;;;;;;96.83;58.63;;;18.80;99.90;;;;;;6243766;23;20422;-77
2023/07/28 06:24:17;;;;;;;105.57;64.83;;;18.80;99.90;;;;;;6244641;23;20407;-77
2023/07/28 06:26:44;;;;;;;106.30;64.10;;;18.70;99.90;;;;;;6243417;23;20460;-78
2023/07/28 06:29:10;;;;;;;100.27;63.03;;;18.70;99.90;;;;;;6243752;23;20416;-76
2023/07/28 06:31:39;;;;;;;96.30;61.70;;;18.70;99.90;;;;;;6243665;23;20404;-79
2023/07/28 06:34:06;;;;;;;96.23;63.73;;;18.60;99.90;;;;;;6243946;23;20501;-78
2023/07/28 06:36:33;;;;;;;92.97;60.97;;;18.80;99.90;;;;;;6245772;23;20412;-78
2023/07/28 06:38:59;;;;;;;94.30;62.17;;;18.80;99.90;;;;;;6251039;23;20415;-78
2023/07/28 06:41:26;;;;;;;94.60;60.57;;;18.70;99.90;;;;;;6252591;23;20419;-77
2023/07/28 06:43:53;;;;;;;94.37;60.10;;;18.60;99.90;;;;;;6251370;23;20497;-76
2023/07/28 06:46:19;;;;;;;91.87;59.67;;;18.60;99.90;;;;;;6248920;23;20419;-77
2023/07/28 06:48:48;;;;;;;92.63;60.43;;;18.70;99.90;;;;;;6247163;23;20436;-75
2023/07/28 06:51:14;;;;;;;93.63;60.43;;;18.60;99.90;;;;;;6245157;23;20408;-77
2023/07/28 06:53:41;;;;;;;94.10;60.70;;;18.80;99.90;;;;;;6243076;23;20408;-76
2023/07/28 06:56:08;;;;;;;93.57;62.67;;;18.90;99.90;;;;;;6243240;23;20435;-76
2023/07/28 06:58:34;;;;;;;95.00;59.60;;;18.90;99.90;;;;;;6243695;23;20411;-76
2023/07/28 07:01:01;;;;;;;93.30;60.50;;;19.00;99.90;;;;;;6243384;23;20404;-76
2023/07/28 07:03:28;;;;;;;96.77;63.73;;;19.00;99.90;;;;;;6243333;23;20457;-77
2023/07/28 07:05:56;;;;;;;98.13;64.40;;;18.90;99.90;;;;;;6242924;23;20972;-77
2023/07/28 07:08:23;;;;;;;98.87;66.60;;;19.10;99.90;;;;;;6236321;23;20463;-76
2023/07/28 07:10:51;;;;;;;96.20;64.00;;;19.10;99.90;;;;;;6242811;23;20415;-76
2023/07/28 07:13:18;;;;;;;96.13;61.70;;;19.00;99.90;;;;;;6243228;23;20428;-77
2023/07/28 07:15:45;;;;;;;94.67;59.47;;;18.90;99.90;;;;;;6240620;23;20408;-77
2023/07/28 07:18:12;;;;;;;91.77;57.40;;;18.90;99.90;;;;;;6243028;23;20911;-77
2023/07/28 07:20:39;;;;;;;90.40;54.90;;;19.00;99.90;;;;;;6244137;23;20410;-78
2023/07/28 07:23:07;;;;;;;86.50;52.00;;;19.10;99.90;;;;;;6242992;23;20408;-75
2023/07/28 07:25:34;;;;;;;88.53;49.57;;;19.10;99.90;;;;;;6242993;23;20404;-75
2023/07/28 07:28:01;;;;;;;81.23;46.93;;;19.30;99.90;;;;;;6242817;23;20439;-76
2023/07/28 07:30:27;;;;;;;82.60;47.03;;;19.50;99.90;;;;;;6242789;23;20868;-76
2023/07/28 07:32:54;;;;;;;83.97;46.00;;;19.80;99.90;;;;;;6242411;22;20900;-76
2023/07/28 07:35:21;;;;;;;89.27;45.70;;;19.90;99.90;;;;;;6242848;23;20643;-75
2023/07/28 07:37:47;;;;;;;82.00;39.00;;;20.10;99.90;;;;;;6242786;23;20407;-76
2023/07/28 07:40:15;;;;;;;79.57;38.13;;;20.30;99.90;;;;;;6242967;23;20738;-77
2023/07/28 07:42:43;;;;;;;75.60;35.37;;;20.30;99.90;;;;;;6243575;23;20472;-77
2023/07/28 07:45:11;;;;;;;76.40;37.27;;;20.40;99.90;;;;;;6243176;23;20473;-80
2023/07/28 07:47:39;;;;;;;76.20;34.63;;;20.70;99.90;;;;;;6243681;23;20450;-80
2023/07/28 07:50:08;;;;;;;73.93;32.63;;;21.20;99.90;;;;;;6243576;23;20418;-80
2023/07/28 07:52:35;;;;;;;73.00;33.17;;;21.80;99.90;;;;;;6243646;23;20442;-81
2023/07/28 07:55:02;;;;;;;73.90;32.00;;;22.20;99.90;;;;;;6243313;23;20415;-81
2023/07/28 07:57:31;;;;;;;72.37;31.20;;;22.60;99.90;;;;;;6243707;23;20404;-81
2023/07/28 07:59:58;;;;;;;73.77;30.93;;;22.60;99.90;;;;;;6243462;23;20783;-79
2023/07/28 08:02:25;;;;;;;72.97;31.73;;;22.40;99.90;;;;;;6245063;23;20408;-80
2023/07/28 08:04:54;;;;;;;74.07;32.30;;;22.10;99.90;;;;;;6243648;23;20411;-80
2023/07/28 08:07:23;;;;;;;72.73;32.20;;;21.90;99.90;;;;;;6242538;23;20530;-80
2023/07/28 08:09:49;;;;;;;72.27;32.27;;;21.70;99.90;;;;;;6237480;23;20436;-78
2023/07/28 08:12:16;;;;;;;73.90;32.00;;;21.70;99.90;;;;;;6241068;23;20434;-81
2023/07/28 08:14:45;;;;;;;71.67;32.70;;;21.80;99.90;;;;;;6243171;23;20408;-82
2023/07/28 08:17:13;;;;;;;73.57;32.70;;;22.00;99.90;;;;;;6244873;23;20913;-82
2023/07/28 08:19:39;;;;;;;73.63;32.43;;;22.40;99.90;;;;;;6245059;23;20411;-82
2023/07/28 08:22:06;;;;;;;78.40;34.90;;;22.60;99.90;;;;;;6245196;23;20404;-82
2023/07/28 08:24:33;;;;;;;77.03;34.30;;;22.50;99.90;;;;;;6243724;23;20407;-83
2023/07/28 08:27:00;;;;;;;75.47;34.67;;;22.60;99.90;;;;;;6244431;23;20412;-82
2023/07/28 08:29:27;;;;;;;79.27;33.20;;;22.70;99.90;;;;;;6244690;23;20445;-83
2023/07/28 08:31:55;;;;;;;74.10;33.67;;;23.00;99.90;;;;;;6245518;23;20407;-82
2023/07/28 08:34:22;;;;;;;74.03;32.80;;;23.20;99.90;;;;;;6245067;23;20467;-82
2023/07/28 08:36:48;;;;;;;73.40;32.80;;;23.50;99.90;;;;;;6244834;23;20404;-82
2023/07/28 08:39:15;;;;;;;71.83;32.60;;;23.90;99.90;;;;;;6244972;23;20403;-82
2023/07/28 08:41:42;;;;;;;70.73;31.13;;;24.10;99.90;;;;;;6244159;23;20935;-83
2023/07/28 08:44:09;;;;;;;71.30;30.57;;;24.40;99.90;;;;;;6244691;23;20415;-81
2023/07/28 08:46:36;;;;;;;72.60;30.43;;;24.60;99.90;;;;;;6244388;23;20424;-82
2023/07/28 08:49:04;;;;;;;69.13;29.97;;;25.00;99.90;;;;;;6250376;23;20435;-80
2023/07/28 08:51:32;;;;;;;68.40;29.63;;;25.40;99.90;;;;;;6249479;23;20408;-81
2023/07/28 08:53:58;;;;;;;68.93;29.03;;;25.70;99.90;;;;;;6243693;23;21074;-81
2023/07/28 08:56:26;;;;;;;68.33;29.30;;;25.90;99.90;;;;;;6243563;23;20408;-81
2023/07/28 08:58:59;;;;;;;69.20;30.60;;;25.80;99.90;;;;;;6248337;23;20435;-81
2023/07/28 09:01:25;;;;;;;73.10;31.17;;;26.00;99.90;;;;;;6243606;23;20399;-79
2023/07/28 09:03:52;;;;;;;69.77;30.67;;;26.30;99.90;;;;;;6242642;23;20404;-80
2023/07/28 09:06:30;;;;;;;69.00;31.50;;;26.50;99.90;;;;;;6244055;23;20412;-80
2023/07/28 09:08:57;;;;;;;70.10;31.10;;;26.70;99.90;;;;;;6243353;23;20833;-79
2023/07/28 09:11:26;;;;;;;72.20;30.30;;;26.70;99.90;;;;;;6236167;23;20447;-77
2023/07/28 09:13:55;;;;;;;67.97;30.27;;;26.50;99.90;;;;;;6242874;23;20412;-78
2023/07/28 09:16:22;;;;;;;75.33;31.47;;;26.20;99.90;;;;;;6242769;23;20510;-79
2023/07/28 09:18:49;;;;;;;72.40;30.03;;;25.90;99.90;;;;;;6242509;23;20419;-78
2023/07/28 09:21:21;;;;;;;70.20;31.33;;;25.60;99.90;;;;;;6242116;23;20435;-77
2023/07/28 09:23:48;;;;;;;69.10;30.00;;;25.30;99.90;;;;;;6247463;23;20408;-77
2023/07/28 09:26:15;;;;;;;74.30;31.27;;;25.20;99.90;;;;;;6244166;23;20482;-77
2023/07/28 09:28:45;;;;;;;70.20;29.93;;;25.20;99.90;;;;;;6241251;23;20490;-77
2023/07/28 09:31:14;;;;;;;69.60;29.50;;;24.70;99.90;;;;;;6241331;23;20922;-77
2023/07/28 09:33:46;;;;;;;70.83;30.50;;;24.50;99.90;;;;;;6197924;22;1035258;-77
2023/07/28 09:36:15;;;;;;;69.83;30.13;;;24.40;99.90;;;;;;6243334;23;20197;-76
2023/07/28 09:38:43;;;;;;;71.80;30.40;;;24.30;99.90;;;;;;6243388;23;20423;-77
2023/07/28 09:41:11;;;;;;;70.20;29.50;;;24.30;99.90;;;;;;6244086;23;20399;-77
2023/07/28 09:43:39;;;;;;;68.30;29.07;;;24.50;99.90;;;;;;6243402;23;20416;-77
2023/07/28 09:46:08;;;;;;;68.30;29.07;;;24.80;99.90;;;;;;6243601;23;20411;-77
2023/07/28 09:48:37;;;;;;;69.23;29.83;;;25.30;99.90;;;;;;6242590;23;20455;-77
2023/07/28 09:51:09;;;;;;;69.50;28.30;;;26.00;99.90;;;;;;6243150;23;20792;-77
2023/07/28 09:53:45;;;;;;;66.63;27.13;;;26.30;99.90;;;;;;6243314;23;20388;-75
2023/07/28 09:56:15;;;;;;;71.67;27.20;;;26.60;99.90;;;;;;6242995;23;20403;-76
2023/07/28 09:58:45;;;;;;;66.43;28.93;;;27.40;99.90;;;;;;6243156;23;20400;-78
2023/07/28 10:01:12;;;;;;;66.20;27.63;;;27.60;99.90;;;;;;6243484;23;20388;-77
2023/07/28 10:03:40;;;;;;;67.40;28.60;;;27.60;99.90;;;;;;6243591;23;20414;-76
2023/07/28 10:06:07;;;;;;;69.00;29.10;;;27.50;99.90;;;;;;6242982;23;20918;-78
2023/07/28 10:08:34;;;;;;;67.60;28.70;;;27.30;99.90;;;;;;6243242;23;20439;-75
2023/07/28 10:11:02;;;;;;;67.67;28.40;;;26.40;99.90;;;;;;6243497;23;20415;-76
2023/07/28 10:13:40;;;;;;;68.53;27.40;;;26.40;99.90;;;;;;6244765;23;20432;-78
2023/07/28 10:16:07;;;;;;;67.40;27.07;;;26.80;99.90;;;;;;6243386;23;20392;-77
2023/07/28 10:18:34;;;;;;;66.57;27.60;;;26.60;99.90;;;;;;6243378;23;20424;-77
2023/07/28 10:21:08;;;;;;;66.90;27.40;;;26.90;99.90;;;;;;6243323;23;20412;-76
2023/07/28 10:23:37;;;;;;;67.67;28.20;;;27.40;99.90;;;;;;6243567;23;20399;-76
2023/07/28 10:26:05;;;;;;;67.90;28.07;;;27.60;99.90;;;;;;6243421;23;20495;-77
2023/07/28 10:28:38;;;;;;;67.30;28.63;;;27.40;99.90;;;;;;6243458;23;20832;-76
2023/07/28 10:31:06;;;;;;;67.70;28.00;;;27.30;99.90;;;;;;6243424;23;20673;-76
2023/07/28 10:33:35;;;;;;;67.80;28.73;;;27.40;99.90;;;;;;6243311;23;20938;-76
2023/07/28 10:36:13;;;;;;;69.43;28.20;;;27.70;99.90;;;;;;6243310;23;20441;-76
2023/07/28 10:38:40;;;;;;;68.50;28.23;;;28.00;99.90;;;;;;6243443;23;20388;-76
2023/07/28 10:41:14;;;;;;;68.17;28.30;;;28.00;99.90;;;;;;6243081;23;20407;-76
2023/07/28 10:43:42;;;;;;;67.53;28.03;;;27.90;99.90;;;;;;6242661;23;20922;-76
2023/07/28 10:46:10;;;;;;;66.17;28.80;;;27.70;99.90;;;;;;6243384;23;20412;-76
2023/07/28 10:48:39;;;;;;;68.27;28.80;;;27.90;99.90;;;;;;6243353;23;20503;-76
2023/07/28 10:51:06;;;;;;;66.27;28.80;;;27.80;99.90;;;;;;6243186;23;20419;-76
2023/07/28 10:53:34;;;;;;;66.83;28.47;;;27.50;99.90;;;;;;6242835;23;20404;-76
2023/07/28 10:56:03;;;;;;;71.30;29.63;;;27.80;99.90;;;;;;6242174;23;20569;-76
2023/07/28 10:58:29;;;;;;;69.50;28.93;;;27.80;99.90;;;;;;6242865;23;20404;-76
2023/07/28 11:00:57;;;;;;;67.97;29.40;;;27.90;99.90;;;;;;6242241;23;20435;-75
2023/07/28 11:03:24;;;;;;;67.47;30.20;;;27.90;99.90;;;;;;6242498;23;20416;-76
2023/07/28 11:05:51;;;;;;;66.90;28.83;;;27.90;99.90;;;;;;6240285;23;20420;-76
2023/07/28 11:08:19;;;;;;;66.80;28.47;;;28.00;99.90;;;;;;6242174;23;20440;-76
2023/07/28 11:10:45;;;;;;;66.50;27.60;;;28.10;99.90;;;;;;6241839;23;20416;-74
2023/07/28 11:13:12;;;;;;;68.50;29.07;;;28.30;99.90;;;;;;6242413;23;20444;-76
2023/07/28 11:15:39;;;;;;;67.70;28.13;;;28.90;99.60;;;;;;6242535;23;20904;-75
2023/07/28 11:18:07;;;;;;;66.87;29.53;;;29.20;97.40;;;;;;6242390;23;20411;-75
2023/07/28 11:20:34;;;;;;;66.27;27.37;;;29.80;96.90;;;;;;6242177;23;20993;-75
2023/07/28 11:23:03;;;;;;;68.73;29.00;;;30.00;96.40;;;;;;6242552;23;20419;-74
2023/07/28 11:25:31;;;;;;;67.50;29.07;;;30.60;95.80;;;;;;6243423;23;20404;-75
2023/07/28 11:27:58;;;;;;;69.77;29.40;;;30.80;94.00;;;;;;6243336;23;20408;-75
2023/07/28 11:30:25;;;;;;;66.17;29.97;;;30.60;93.90;;;;;;6242283;23;20420;-76
2023/07/28 11:32:53;;;;;;;66.93;30.33;;;31.20;93.40;;;;;;6242867;22;20412;-75
2023/07/28 11:35:23;;;;;;;67.20;29.20;;;31.40;92.90;;;;;;6242983;23;20372;-75
2023/07/28 11:37:52;;;;;;;69.47;28.67;;;31.60;92.20;;;;;;6242778;23;20404;-75
2023/07/28 11:40:21;;;;;;;68.57;29.87;;;31.90;91.90;;;;;;6241736;23;20747;-75
2023/07/28 11:42:50;;;;;;;65.80;27.30;;;32.00;91.20;;;;;;6241993;23;20448;-75
2023/07/28 11:45:19;;;;;;;66.17;29.33;;;31.90;90.70;;;;;;6241916;23;20419;-75
2023/07/28 11:47:56;;;;;;;65.37;27.87;;;31.90;90.70;;;;;;6241502;23;20469;-75
2023/07/28 11:50:29;;;;;;;65.70;28.63;;;32.00;90.70;;;;;;6241709;23;20742;-76
2023/07/28 11:52:58;;;;;;;65.70;27.50;;;32.10;89.70;;;;;;6243302;23;20392;-75
2023/07/28 11:55:25;;;;;;;64.90;27.30;;;31.70;89.90;;;;;;6242005;23;20895;-75
2023/07/28 11:57:53;;;;;;;65.53;28.03;;;30.50;91.10;;;;;;6241655;23;20478;-75
2023/07/28 12:00:27;;;;;;;67.17;28.23;;;30.00;93.50;;;;;;6242782;23;20721;-74
2023/07/28 12:03:05;;;;;;;65.07;28.67;;;29.40;93.50;;;;;;6241591;23;20392;-75
2023/07/28 12:05:34;;;;;;;66.90;26.33;;;29.20;95.00;;;;;;6239010;23;20974;-75
2023/07/28 12:08:02;;;;;;;68.90;28.27;;;29.30;94.80;;;;;;6242313;23;20392;-75
2023/07/28 12:10:31;;;;;;;66.53;27.87;;;29.20;94.80;;;;;;6241703;23;20427;-76
2023/07/28 12:12:57;;;;;;;66.60;26.13;;;29.00;95.20;;;;;;6242134;23;20509;-75
2023/07/28 12:15:28;;;;;;;70.13;34.17;;;28.50;96.80;;;;;;6242469;23;20699;-73
2023/07/28 12:18:13;;;;;;;69.47;32.90;;;27.80;99.90;;;;;;6241879;23;20949;-75
2023/07/28 12:20:46;;;;;;;67.77;30.67;;;26.70;99.90;;;;;;6241994;23;20380;-75
2023/07/28 12:23:13;;;;;;;67.37;28.00;;;25.80;99.90;;;;;;6242010;23;20392;-75
2023/07/28 12:25:40;;;;;;;67.47;27.83;;;24.80;99.90;;;;;;6241708;23;20506;-75
2023/07/28 12:28:07;;;;;;;66.90;26.20;;;24.30;99.90;;;;;;6241669;23;20407;-75
2023/07/28 12:30:34;;;;;;;67.17;26.50;;;24.30;99.90;;;;;;6242025;23;20435;-75